EGNV/MME METAR and TAF weather

Enter ICAO airport designator
Station Type Date Time Source
EGNV METAR 2022/01/29 09:20 UTC NOAA

EGNV 290920Z 24022G34KT 9999 FEW019 SCT025 11/07 Q1014


Station Type Date Time Source
EGNV Decoded METAR 2022/01/29 09:20 UTC NOAA

Tees-Side, United Kingdom (EGNV) 54-31N 001-25W
Jan 29, 2022 - 04:20 AM EST / 2022.01.29 0920 UTC
Wind: from the WSW (240 degrees) at 25 MPH (22 KT) gusting to 39 MPH (34 KT):0
Visibility: greater than 7 mile(s):0
Sky conditions: partly cloudy
Temperature: 51 F (11 C)
Dew Point: 44 F (7 C)
Relative Humidity: 76%
Pressure (altimeter): 29.94 in. Hg (1014 hPa)
ob: EGNV 290920Z 24022G34KT 9999 FEW019 SCT025 11/07 Q1014
cycle: 9

Station Type Date Time Source
EGNV TAF 2021/06/27 18:09 UTC NOAA

TAF EGNV 271655Z 2718/2821 04009KT 9999 SCT012 BKN018 PROB40
TEMPO 2718/2821 BKN012

Example: see airport list